Time;durP1;ratioP1;P1;durP2;ratioP2;P2;SDS_P1;SDS_P2;PMS_P1;PMS_P2;Temp;Humidity;BMP_temperature;BMP_pressure;BME280_temperature;BME280_humidity;BME280_pressure;Samples;Min_cycle;Max_cycle;Signal;HPM_P1;HPM_P2
2023/02/20 00:00:42;;;;;;;51.55;6.05;;;6.30;99.90;;;;;;5066006;28;20044;-80
2023/02/20 00:03:09;;;;;;;10.52;4.63;;;6.30;99.90;;;;;;5080233;28;20077;-79
2023/02/20 00:05:35;;;;;;;11.50;5.68;;;6.20;99.90;;;;;;5085975;28;20538;-79
2023/02/20 00:08:01;;;;;;;50.33;6.45;;;6.20;99.90;;;;;;5077288;28;20024;-79
2023/02/20 00:10:27;;;;;;;47.15;6.55;;;6.20;99.90;;;;;;5063602;28;20553;-79
2023/02/20 00:12:53;;;;;;;11.23;5.47;;;6.20;99.90;;;;;;5066052;28;20028;-79
2023/02/20 00:15:20;;;;;;;8.43;5.25;;;6.20;99.90;;;;;;5081514;28;20496;-81
2023/02/20 00:17:46;;;;;;;63.22;8.43;;;6.20;99.90;;;;;;5077637;28;20063;-79
2023/02/20 00:20:18;;;;;;;9.68;5.22;;;6.20;99.90;;;;;;5083140;28;20076;-79
2023/02/20 00:22:43;;;;;;;10.48;6.00;;;6.20;99.90;;;;;;5083947;28;20032;-79
2023/02/20 00:25:10;;;;;;;13.98;6.53;;;6.20;99.90;;;;;;5065377;28;20036;-79
2023/02/20 00:27:35;;;;;;;19.85;6.43;;;6.20;99.90;;;;;;5061452;28;20028;-80
2023/02/20 00:30:01;;;;;;;10.57;5.68;;;6.20;99.90;;;;;;5076526;28;20499;-79
2023/02/20 00:32:27;;;;;;;10.50;5.60;;;6.20;99.90;;;;;;5037274;28;20554;-79
2023/02/20 00:34:53;;;;;;;14.60;5.82;;;6.20;99.90;;;;;;5086110;28;20035;-79
2023/02/20 00:37:19;;;;;;;23.27;5.80;;;6.10;99.90;;;;;;5074352;28;20114;-79
2023/02/20 00:39:45;;;;;;;10.30;5.15;;;6.10;99.90;;;;;;5079789;28;20059;-80
2023/02/20 00:42:11;;;;;;;10.70;5.30;;;6.10;99.90;;;;;;5056790;28;20036;-79
2023/02/20 00:44:37;;;;;;;10.63;5.60;;;6.10;99.90;;;;;;5083959;28;20647;-79
2023/02/20 00:47:03;;;;;;;9.35;5.32;;;6.20;99.90;;;;;;5056762;28;20046;-80
2023/02/20 00:49:29;;;;;;;9.25;5.28;;;6.10;99.90;;;;;;5047241;28;20020;-79
2023/02/20 00:52:07;;;;;;;12.77;5.90;;;6.10;99.90;;;;;;5060152;28;20040;-79
2023/02/20 00:54:34;;;;;;;11.90;5.35;;;6.10;99.90;;;;;;5076831;28;20024;-79
2023/02/20 00:57:00;;;;;;;9.85;5.28;;;6.10;99.90;;;;;;5076545;28;20124;-80
2023/02/20 00:59:25;;;;;;;10.88;5.20;;;6.10;99.90;;;;;;5057285;28;20675;-80
2023/02/20 01:01:51;;;;;;;8.50;4.90;;;6.10;99.90;;;;;;5065290;28;20036;-79
2023/02/20 01:04:18;;;;;;;38.67;5.90;;;6.10;99.90;;;;;;5083659;28;20028;-79
2023/02/20 01:06:44;;;;;;;11.48;4.45;;;6.20;99.90;;;;;;5067174;28;20120;-80
2023/02/20 01:09:11;;;;;;;7.28;3.95;;;6.10;99.90;;;;;;5063115;28;20909;-80
2023/02/20 01:11:37;;;;;;;14.45;4.20;;;6.10;99.90;;;;;;5074794;28;20036;-80
2023/02/20 01:14:03;;;;;;;5.75;3.67;;;6.10;99.90;;;;;;5083673;28;20035;-79
2023/02/20 01:16:29;;;;;;;7.97;4.40;;;6.10;99.90;;;;;;5073894;28;20020;-79
2023/02/20 01:18:55;;;;;;;8.88;4.97;;;6.10;99.90;;;;;;5084299;28;20032;-80
2023/02/20 01:21:22;;;;;;;22.42;5.05;;;6.10;99.90;;;;;;5083782;28;20480;-79
2023/02/20 01:23:48;;;;;;;99.45;8.25;;;6.10;99.90;;;;;;5040748;28;20078;-79
2023/02/20 01:26:14;;;;;;;11.02;5.63;;;6.10;99.90;;;;;;5049949;28;20085;-80
2023/02/20 01:28:44;;;;;;;31.35;6.28;;;6.10;99.90;;;;;;5063272;28;20082;-79
2023/02/20 01:31:10;;;;;;;9.90;5.43;;;6.10;99.90;;;;;;5058770;28;20389;-81
2023/02/20 01:33:38;;;;;;;15.55;5.10;;;6.10;99.90;;;;;;5063404;28;20024;-79
2023/02/20 01:36:05;;;;;;;9.75;5.82;;;6.10;99.90;;;;;;5084086;28;20041;-79
2023/02/20 01:38:31;;;;;;;13.38;5.10;;;6.10;99.90;;;;;;5079570;28;20047;-80
2023/02/20 01:40:57;;;;;;;12.48;6.00;;;6.10;99.90;;;;;;5050906;28;20032;-79
2023/02/20 01:43:24;;;;;;;11.43;5.93;;;6.10;99.90;;;;;;5061558;28;20036;-79
2023/02/20 01:45:49;;;;;;;13.80;6.03;;;6.10;99.90;;;;;;5068940;28;20040;-80
2023/02/20 01:48:24;;;;;;;11.88;6.07;;;6.10;99.90;;;;;;5087097;28;20551;-80
2023/02/20 01:50:56;;;;;;;14.13;5.88;;;6.00;99.90;;;;;;5085455;28;20085;-79
2023/02/20 01:53:25;;;;;;;11.70;5.75;;;6.00;99.90;;;;;;5066172;28;20081;-81
2023/02/20 01:56:04;;;;;;;11.10;5.10;;;6.00;99.90;;;;;;5086179;28;20103;-79
2023/02/20 01:58:45;;;;;;;10.90;5.65;;;6.00;99.90;;;;;;5065897;28;20141;-79
2023/02/20 02:01:12;;;;;;;10.75;5.50;;;6.00;99.90;;;;;;5061349;28;20058;-79
2023/02/20 02:03:43;;;;;;;17.95;6.03;;;6.00;99.90;;;;;;5065513;28;20590;-80
2023/02/20 02:06:12;;;;;;;31.27;6.45;;;6.00;99.90;;;;;;5068478;28;20126;-79
2023/02/20 02:08:40;;;;;;;28.48;5.53;;;6.00;99.90;;;;;;5078173;28;20505;-79
2023/02/20 02:11:09;;;;;;;55.08;6.85;;;6.00;99.90;;;;;;5056797;28;20741;-79
2023/02/20 02:13:37;;;;;;;8.38;4.70;;;5.90;99.90;;;;;;5066713;28;20097;-79
2023/02/20 02:16:20;;;;;;;28.05;5.88;;;6.00;99.90;;;;;;5069183;28;20023;-79
2023/02/20 02:18:51;;;;;;;9.40;5.07;;;5.90;99.90;;;;;;5069582;28;20036;-79
2023/02/20 02:21:45;;;;;;;7.95;4.30;;;5.90;99.90;;;;;;5084420;28;20024;-79
2023/02/20 02:24:38;;;;;;;19.17;4.75;;;5.90;99.90;;;;;;5079856;28;20032;-79
2023/02/20 02:27:41;;;;;;;16.48;3.97;;;5.90;99.90;;;;;;5082254;28;20017;-80
2023/02/20 02:30:28;;;;;;;7.72;4.03;;;5.90;99.90;;;;;;5084843;28;20115;-79
2023/02/20 02:33:06;;;;;;;36.70;5.30;;;5.90;99.90;;;;;;5074459;28;20028;-78
2023/02/20 02:36:10;;;;;;;9.82;4.57;;;5.90;99.90;;;;;;5087336;28;20032;-80
2023/02/20 02:38:55;;;;;;;10.18;5.32;;;5.90;99.90;;;;;;5088186;28;20024;-79
2023/02/20 02:41:46;;;;;;;11.43;5.80;;;5.80;99.90;;;;;;5089388;28;20020;-81
2023/02/20 02:44:18;;;;;;;24.70;5.97;;;5.80;99.90;;;;;;5083823;28;20039;-80
2023/02/20 02:46:49;;;;;;;11.32;6.20;;;5.80;99.90;;;;;;5080462;28;20050;-79
2023/02/20 02:49:47;;;;;;;11.98;5.70;;;5.80;99.90;;;;;;5086915;28;20020;-79
2023/02/20 02:52:37;;;;;;;18.20;6.00;;;5.70;99.90;;;;;;5060768;28;20032;-78
2023/02/20 02:55:02;;;;;;;12.38;5.45;;;5.60;99.90;;;;;;5087312;28;20043;-79
2023/02/20 02:57:27;;;;;;;15.45;6.53;;;5.60;99.90;;;;;;5080559;28;20028;-79
2023/02/20 03:00:00;;;;;;;10.93;5.63;;;5.50;99.90;;;;;;5081342;28;20445;-80
2023/02/20 03:02:31;;;;;;;11.50;5.43;;;5.50;99.90;;;;;;5083286;28;20107;-80
2023/02/20 03:04:59;;;;;;;12.45;5.78;;;5.50;99.90;;;;;;5082021;28;20029;-80
2023/02/20 03:07:28;;;;;;;20.02;7.03;;;5.50;99.90;;;;;;5080197;28;20028;-79
2023/02/20 03:09:59;;;;;;;12.00;6.05;;;5.50;99.90;;;;;;5065910;28;20293;-77
2023/02/20 03:12:26;;;;;;;13.25;6.65;;;5.50;99.90;;;;;;5081394;28;20523;-80
2023/02/20 03:18:09;;;;;;;18.02;6.22;;;5.50;99.90;;;;;;5085443;28;20031;-79
2023/02/20 03:20:52;;;;;;;13.40;5.70;;;5.50;99.90;;;;;;5064790;28;20020;-78
2023/02/20 03:23:25;;;;;;;44.95;7.35;;;5.50;99.90;;;;;;5074384;28;20679;-79
2023/02/20 03:26:00;;;;;;;11.52;5.85;;;5.50;99.90;;;;;;5087759;28;20036;-79
2023/02/20 03:28:41;;;;;;;11.05;6.30;;;5.50;99.90;;;;;;5088861;28;20028;-79
2023/02/20 03:31:27;;;;;;;12.70;6.07;;;5.50;99.90;;;;;;5063273;28;20052;-80
2023/02/20 03:45:40;;;;;;;14.40;7.35;;;5.50;99.90;;;;;;5075770;28;20123;-79
2023/02/20 03:48:18;;;;;;;15.07;7.75;;;5.40;99.90;;;;;;5056779;28;20115;-80
2023/02/20 03:53:39;;;;;;;36.50;8.00;;;5.50;99.90;;;;;;5079411;28;20043;-80
2023/02/20 03:56:21;;;;;;;14.57;7.10;;;5.50;99.90;;;;;;5068165;28;20056;-80
2023/02/20 03:58:57;;;;;;;13.80;7.70;;;5.50;99.90;;;;;;5086353;28;20028;-80
2023/02/20 04:01:26;;;;;;;15.05;7.68;;;5.40;99.90;;;;;;5060372;28;20038;-79
2023/02/20 04:03:55;;;;;;;15.35;8.05;;;5.40;99.90;;;;;;5085085;28;20565;-79
2023/02/20 04:06:25;;;;;;;16.27;7.60;;;5.40;99.90;;;;;;5081533;28;20028;-79
2023/02/20 04:09:03;;;;;;;13.43;7.10;;;5.40;99.90;;;;;;5099281;28;20074;-79
2023/02/20 04:11:38;;;;;;;12.48;6.65;;;5.40;99.90;;;;;;5078544;28;20822;-80
2023/02/20 04:14:05;;;;;;;15.90;6.80;;;5.40;99.90;;;;;;5073981;28;20028;-79
2023/02/20 04:16:41;;;;;;;13.80;6.32;;;5.40;99.90;;;;;;5082090;28;20033;-80
2023/02/20 04:19:07;;;;;;;13.93;6.88;;;5.40;99.90;;;;;;5071549;28;20667;-79
2023/02/20 04:21:46;;;;;;;14.35;7.25;;;5.40;99.90;;;;;;5079549;28;20518;-79
2023/02/20 04:24:17;;;;;;;12.15;6.70;;;5.40;99.90;;;;;;5084323;28;20055;-79
2023/02/20 04:26:44;;;;;;;12.35;6.22;;;5.40;99.90;;;;;;5078436;28;20024;-79
2023/02/20 04:29:10;;;;;;;13.02;7.35;;;5.40;99.90;;;;;;5066480;28;20021;-80
2023/02/20 04:31:36;;;;;;;16.45;7.03;;;5.40;99.90;;;;;;5064742;28;20024;-80
2023/02/20 04:34:01;;;;;;;16.65;8.02;;;5.40;99.90;;;;;;5079375;28;20050;-79
2023/02/20 04:36:28;;;;;;;14.70;7.63;;;5.40;99.90;;;;;;5087573;28;20066;-77
2023/02/20 04:38:56;;;;;;;13.95;7.95;;;5.40;99.90;;;;;;5068633;28;20025;-78
2023/02/20 04:41:25;;;;;;;14.98;7.00;;;5.40;99.90;;;;;;5069975;28;20020;-77
2023/02/20 04:44:29;;;;;;;15.20;7.40;;;5.40;99.90;;;;;;5081760;28;20028;-77
2023/02/20 04:46:38;;;;;;;19.02;8.20;;;5.30;99.90;;;;;;5084364;28;20714;-77
2023/02/20 04:49:04;;;;;;;17.00;7.72;;;5.40;99.90;;;;;;5063294;28;20036;-78
2023/02/20 04:51:30;;;;;;;13.68;7.50;;;5.40;99.90;;;;;;5065871;28;20055;-78
2023/02/20 04:53:58;;;;;;;15.07;8.25;;;5.40;99.90;;;;;;5077398;28;20043;-77
2023/02/20 04:56:24;;;;;;;13.73;7.10;;;5.40;99.90;;;;;;5079660;28;20557;-77
2023/02/20 04:58:52;;;;;;;14.55;8.00;;;5.40;99.90;;;;;;5080843;28;20025;-76
2023/02/20 05:01:20;;;;;;;14.38;7.57;;;5.40;99.90;;;;;;5061044;28;20036;-77
2023/02/20 05:03:45;;;;;;;18.42;8.45;;;5.40;99.90;;;;;;5085525;28;20032;-77
2023/02/20 05:06:11;;;;;;;19.75;8.60;;;5.50;99.90;;;;;;5082325;28;20032;-79
2023/02/20 05:08:37;;;;;;;15.55;7.72;;;5.40;99.90;;;;;;5090092;28;20072;-79
2023/02/20 05:11:03;;;;;;;16.55;7.88;;;5.40;99.90;;;;;;5084363;28;20032;-77
2023/02/20 05:13:28;;;;;;;36.85;8.00;;;5.40;99.90;;;;;;5089752;28;20046;-77
2023/02/20 05:15:54;;;;;;;27.77;7.00;;;5.40;99.90;;;;;;5085581;28;20039;-77
2023/02/20 05:18:28;;;;;;;71.00;9.55;;;5.40;99.90;;;;;;5085540;28;20047;-78
2023/02/20 05:23:38;;;;;;;54.42;8.30;;;5.40;99.90;;;;;;5087962;28;20040;-79
2023/02/20 05:26:09;;;;;;;14.77;7.30;;;5.40;99.90;;;;;;5081117;28;20427;-77
2023/02/20 05:28:35;;;;;;;16.52;7.55;;;5.40;99.90;;;;;;5080448;28;20027;-77
2023/02/20 05:31:01;;;;;;;22.65;6.70;;;5.40;99.90;;;;;;5070897;28;20033;-77
2023/02/20 05:33:26;;;;;;;14.18;7.00;;;5.40;99.90;;;;;;5091209;28;20039;-78
2023/02/20 05:35:52;;;;;;;14.65;6.60;;;5.40;99.90;;;;;;5068694;28;20067;-78
2023/02/20 05:38:18;;;;;;;14.43;7.65;;;5.40;99.90;;;;;;5090144;28;20081;-78
2023/02/20 05:40:44;;;;;;;15.07;7.13;;;5.40;99.90;;;;;;5081040;28;20044;-79
2023/02/20 05:43:10;;;;;;;20.10;8.55;;;5.40;99.90;;;;;;5086610;28;20090;-78
2023/02/20 05:45:36;;;;;;;24.38;7.40;;;5.50;99.90;;;;;;5069855;28;20066;-78
2023/02/20 05:48:01;;;;;;;28.58;7.28;;;5.50;99.90;;;;;;5077799;28;20082;-78
2023/02/20 05:50:27;;;;;;;14.80;7.45;;;5.40;99.90;;;;;;5087471;28;20024;-77
2023/02/20 05:52:53;;;;;;;14.55;6.75;;;5.40;99.90;;;;;;5080794;28;20116;-77
2023/02/20 05:55:19;;;;;;;18.23;7.07;;;5.40;99.90;;;;;;5085053;28;20044;-79
2023/02/20 05:57:44;;;;;;;13.25;6.50;;;5.40;99.90;;;;;;5071518;28;20051;-77
2023/02/20 06:00:11;;;;;;;18.98;8.27;;;5.40;99.90;;;;;;5080508;28;20032;-78
2023/02/20 06:02:39;;;;;;;14.52;7.00;;;5.40;99.90;;;;;;5082412;28;20040;-79
2023/02/20 06:05:06;;;;;;;15.98;7.75;;;5.40;99.90;;;;;;5086832;28;20035;-78
2023/02/20 06:07:33;;;;;;;16.55;7.50;;;5.40;99.90;;;;;;5087175;28;20510;-78
2023/02/20 06:09:58;;;;;;;37.33;7.70;;;5.40;99.90;;;;;;5055929;28;20059;-79
2023/02/20 06:12:24;;;;;;;15.40;8.23;;;5.40;99.90;;;;;;5049994;28;20029;-79
2023/02/20 06:14:50;;;;;;;15.65;7.97;;;5.40;99.90;;;;;;5076485;28;20033;-79
2023/02/20 06:17:16;;;;;;;17.55;7.65;;;5.40;99.90;;;;;;5086201;28;20440;-79
2023/02/20 06:19:42;;;;;;;16.00;8.05;;;5.30;99.90;;;;;;5085853;28;20035;-78
2023/02/20 06:22:08;;;;;;;15.95;7.75;;;5.40;99.90;;;;;;5087204;28;20037;-78
2023/02/20 06:24:33;;;;;;;13.65;7.68;;;5.30;99.90;;;;;;5084700;28;20123;-77
2023/02/20 06:27:00;;;;;;;13.43;7.30;;;5.40;99.90;;;;;;5091305;28;20048;-78
2023/02/20 06:29:26;;;;;;;20.63;7.13;;;5.30;99.90;;;;;;5088537;28;20082;-78
2023/02/20 06:31:52;;;;;;;18.08;6.72;;;5.30;99.90;;;;;;5089463;28;20128;-78
2023/02/20 06:34:18;;;;;;;16.27;7.45;;;5.40;99.90;;;;;;5083126;28;20100;-77
2023/02/20 06:36:44;;;;;;;15.85;7.22;;;5.30;99.90;;;;;;5083357;28;20047;-79
2023/02/20 06:39:11;;;;;;;14.35;6.70;;;5.30;99.90;;;;;;5089157;28;20069;-78
2023/02/20 06:41:38;;;;;;;13.88;7.68;;;5.30;99.90;;;;;;5088590;28;20404;-78
2023/02/20 06:44:04;;;;;;;17.23;7.35;;;5.30;99.90;;;;;;5086223;28;20033;-78
2023/02/20 06:46:30;;;;;;;17.00;7.55;;;5.40;99.90;;;;;;5063857;28;20027;-78
2023/02/20 06:48:57;;;;;;;14.27;6.88;;;5.30;99.90;;;;;;5068870;28;20037;-78
2023/02/20 06:51:33;;;;;;;12.85;7.55;;;5.30;99.90;;;;;;5086992;28;20074;-79
2023/02/20 06:54:00;;;;;;;15.50;7.03;;;5.30;99.90;;;;;;5076590;28;20420;-78
2023/02/20 06:56:28;;;;;;;11.75;6.80;;;5.30;99.90;;;;;;5071320;28;20043;-78
2023/02/20 06:58:55;;;;;;;16.38;7.22;;;5.40;99.90;;;;;;5082549;28;20036;-79
2023/02/20 07:01:23;;;;;;;16.33;7.63;;;5.40;99.90;;;;;;5083754;28;20114;-80
2023/02/20 07:03:49;;;;;;;18.73;8.20;;;5.40;99.90;;;;;;5079632;28;20082;-79
2023/02/20 07:06:15;;;;;;;15.23;7.65;;;5.40;99.90;;;;;;5066330;28;20043;-79
2023/02/20 07:08:41;;;;;;;17.10;8.07;;;5.30;99.90;;;;;;5080134;28;20029;-80
2023/02/20 07:11:07;;;;;;;13.60;7.30;;;5.40;99.90;;;;;;5083703;28;20033;-79
2023/02/20 07:13:33;;;;;;;17.25;7.80;;;5.40;99.90;;;;;;5059151;28;20032;-80
2023/02/20 07:15:59;;;;;;;15.45;7.70;;;5.40;99.90;;;;;;5046814;28;20038;-79
2023/02/20 07:18:26;;;;;;;19.25;8.38;;;5.40;99.90;;;;;;5067831;28;20062;-80
2023/02/20 07:20:55;;;;;;;15.85;8.25;;;5.50;99.90;;;;;;5063107;28;20066;-79
2023/02/20 07:23:22;;;;;;;13.65;7.55;;;5.50;99.90;;;;;;5066368;28;20104;-79
2023/02/20 07:25:49;;;;;;;15.88;7.65;;;5.50;99.90;;;;;;5091076;28;20078;-79
2023/02/20 07:28:18;;;;;;;13.73;7.60;;;5.50;99.90;;;;;;5079230;28;20043;-79
2023/02/20 07:30:45;;;;;;;13.52;7.38;;;5.60;99.90;;;;;;5069960;28;20077;-79
2023/02/20 07:33:11;;;;;;;16.50;8.15;;;5.70;99.90;;;;;;5080688;28;20362;-79
2023/02/20 07:35:37;;;;;;;18.70;8.10;;;5.70;99.90;;;;;;5097331;28;20039;-80
2023/02/20 07:38:06;;;;;;;21.77;9.02;;;5.70;99.90;;;;;;5082115;28;20074;-79
2023/02/20 07:40:32;;;;;;;13.57;8.15;;;5.70;99.90;;;;;;5079429;28;20070;-79
2023/02/20 07:42:57;;;;;;;15.55;8.60;;;5.80;99.90;;;;;;5081376;28;20052;-79
2023/02/20 07:45:27;;;;;;;13.82;7.82;;;6.00;99.90;;;;;;5080911;28;20036;-79
2023/02/20 07:47:53;;;;;;;14.50;8.10;;;6.10;99.90;;;;;;5076997;28;20032;-78
2023/02/20 07:50:19;;;;;;;20.83;9.50;;;6.20;99.90;;;;;;5082721;28;20078;-79
2023/02/20 07:52:45;;;;;;;14.02;8.68;;;6.30;99.90;;;;;;5082386;28;20496;-79
2023/02/20 07:55:15;;;;;;;17.60;8.55;;;6.30;99.90;;;;;;5082428;28;20051;-79
2023/02/20 07:57:44;;;;;;;16.45;8.77;;;6.40;99.90;;;;;;5079625;28;20040;-80
2023/02/20 08:00:14;;;;;;;13.60;8.60;;;6.40;99.90;;;;;;5085605;28;20038;-78
2023/02/20 08:02:39;;;;;;;17.00;8.70;;;6.40;99.90;;;;;;5059701;28;20051;-79
2023/02/20 08:05:05;;;;;;;13.80;7.93;;;6.60;99.90;;;;;;5053121;28;20028;-78
2023/02/20 08:07:31;;;;;;;14.98;7.90;;;6.90;99.90;;;;;;5078553;28;20039;-79
2023/02/20 08:09:57;;;;;;;19.15;8.38;;;7.00;99.90;;;;;;5083714;28;20052;-80
2023/02/20 08:12:23;;;;;;;17.65;8.40;;;7.00;99.90;;;;;;5058542;28;20483;-79
2023/02/20 08:14:50;;;;;;;13.90;7.47;;;7.10;99.90;;;;;;5082026;28;20041;-78
2023/02/20 08:17:16;;;;;;;13.13;8.20;;;7.10;99.90;;;;;;5080998;28;20043;-79
2023/02/20 08:19:42;;;;;;;13.35;7.88;;;7.20;99.90;;;;;;5085089;28;20037;-79
2023/02/20 08:22:08;;;;;;;15.07;8.45;;;7.30;99.90;;;;;;5079680;28;20423;-79
2023/02/20 08:24:33;;;;;;;11.73;7.78;;;7.30;99.90;;;;;;5078835;28;20420;-79
2023/02/20 08:26:59;;;;;;;10.65;7.43;;;7.30;99.90;;;;;;5070396;28;20494;-79
2023/02/20 08:29:25;;;;;;;11.98;7.95;;;7.40;99.90;;;;;;5065421;28;20024;-80
2023/02/20 08:31:51;;;;;;;10.50;7.25;;;7.40;99.90;;;;;;5084122;28;20077;-80
2023/02/20 08:34:17;;;;;;;14.43;7.50;;;7.40;99.90;;;;;;5081943;28;20051;-79
2023/02/20 08:36:42;;;;;;;12.38;7.32;;;7.40;99.90;;;;;;5072933;28;20086;-79
2023/02/20 08:39:08;;;;;;;10.48;6.90;;;7.40;99.90;;;;;;5045915;28;20046;-80
2023/02/20 08:41:40;;;;;;;12.80;7.75;;;7.50;99.90;;;;;;5086888;28;20024;-80
2023/02/20 08:44:06;;;;;;;14.00;7.90;;;7.40;99.90;;;;;;5086379;28;20025;-79
2023/02/20 08:46:31;;;;;;;13.70;8.00;;;7.40;99.90;;;;;;5050202;28;20090;-79
2023/02/20 08:48:57;;;;;;;13.30;7.70;;;7.50;99.90;;;;;;5075635;28;20024;-80
2023/02/20 08:51:25;;;;;;;14.27;7.82;;;7.50;99.90;;;;;;5081021;28;20028;-79
2023/02/20 08:53:51;;;;;;;15.32;8.48;;;7.40;99.90;;;;;;5057232;28;20043;-80
2023/02/20 08:56:19;;;;;;;13.48;7.43;;;7.40;99.90;;;;;;5088988;28;20032;-79
2023/02/20 08:58:45;;;;;;;13.90;8.23;;;7.50;99.90;;;;;;5084993;28;20036;-80
2023/02/20 09:01:10;;;;;;;16.75;9.30;;;7.50;99.90;;;;;;5085942;28;20028;-78
2023/02/20 09:03:40;;;;;;;14.43;8.07;;;7.50;99.90;;;;;;5088750;28;20036;-78
2023/02/20 09:06:07;;;;;;;14.18;9.40;;;7.50;99.90;;;;;;5085454;28;20500;-79
2023/02/20 09:08:33;;;;;;;10.80;7.18;;;7.50;99.90;;;;;;5073834;28;20397;-80
2023/02/20 09:10:58;;;;;;;12.55;8.05;;;7.60;99.90;;;;;;5076880;28;20020;-78
2023/02/20 09:13:24;;;;;;;13.40;7.90;;;7.70;99.90;;;;;;5091253;28;20436;-78
2023/02/20 09:15:50;;;;;;;12.35;7.53;;;7.60;99.90;;;;;;5094040;28;20043;-79
2023/02/20 09:18:16;;;;;;;11.65;6.80;;;7.60;99.90;;;;;;5079993;28;20109;-80
2023/02/20 09:20:42;;;;;;;12.25;8.15;;;7.70;99.90;;;;;;5087018;28;20074;-79
2023/02/20 09:23:08;;;;;;;10.60;7.15;;;7.70;99.90;;;;;;5087997;28;20039;-79
2023/02/20 09:25:34;;;;;;;9.35;6.38;;;7.60;99.90;;;;;;5086502;28;20032;-80
2023/02/20 09:28:00;;;;;;;11.98;7.53;;;7.60;99.90;;;;;;5090054;28;20063;-78
2023/02/20 09:30:27;;;;;;;10.55;6.82;;;7.60;99.90;;;;;;5093077;28;20032;-79
2023/02/20 09:32:53;;;;;;;11.68;6.35;;;7.60;99.90;;;;;;5074971;28;20027;-79
2023/02/20 09:35:29;;;;;;;12.60;6.53;;;7.60;99.90;;;;;;5091289;28;20297;-79
2023/02/20 09:37:56;;;;;;;11.85;6.22;;;7.60;99.90;;;;;;5087450;28;20226;-78
2023/02/20 09:40:27;;;;;;;9.65;5.82;;;7.60;99.90;;;;;;5081709;28;20419;-79
2023/02/20 09:43:29;;;;;;;9.98;7.05;;;7.60;99.90;;;;;;5084666;28;20121;-78
2023/02/20 09:46:12;;;;;;;11.77;6.88;;;7.60;99.90;;;;;;5067398;28;20041;-79
2023/02/20 09:48:41;;;;;;;10.85;6.60;;;7.50;99.90;;;;;;5086376;28;20088;-80
2023/02/20 09:51:15;;;;;;;12.70;6.78;;;7.60;99.90;;;;;;5090180;28;20450;-80
2023/02/20 09:53:59;;;;;;;10.48;6.95;;;7.60;99.90;;;;;;5091047;28;20027;-79
2023/02/20 09:56:33;;;;;;;10.90;6.95;;;7.70;99.90;;;;;;5089975;28;20040;-79
2023/02/20 09:59:01;;;;;;;10.63;6.35;;;7.70;99.90;;;;;;5085341;28;20021;-79
2023/02/20 10:01:28;;;;;;;10.80;6.07;;;7.80;99.90;;;;;;5091170;28;20031;-79
2023/02/20 10:04:11;;;;;;;8.95;5.97;;;7.90;99.90;;;;;;5082653;28;20111;-79
2023/02/20 10:06:37;;;;;;;10.82;5.85;;;8.00;99.90;;;;;;5089201;28;20040;-80
2023/02/20 10:09:03;;;;;;;8.60;5.65;;;8.00;99.90;;;;;;5076285;28;20024;-79
2023/02/20 10:11:29;;;;;;;7.25;5.50;;;8.10;99.90;;;;;;5090543;28;20036;-79
2023/02/20 10:14:33;;;;;;;9.63;5.05;;;8.20;99.90;;;;;;5089418;28;20028;-79
2023/02/20 10:17:46;;;;;;;5.75;3.88;;;8.20;99.90;;;;;;5087928;28;20050;-80
2023/02/20 10:20:15;;;;;;;7.35;3.90;;;8.20;99.90;;;;;;5032401;28;20570;-80
2023/02/20 10:22:50;;;;;;;9.07;3.83;;;8.30;99.90;;;;;;5083979;28;20021;-80
2023/02/20 10:25:24;;;;;;;6.97;3.70;;;8.40;99.90;;;;;;5092479;28;20055;-79
2023/02/20 10:28:13;;;;;;;5.78;3.42;;;8.60;99.90;;;;;;5092316;28;20020;-80
2023/02/20 10:30:44;;;;;;;6.22;3.13;;;8.70;99.90;;;;;;5089716;28;20052;-78
2023/02/20 10:33:16;;;;;;;5.63;3.30;;;8.80;99.90;;;;;;5056964;28;20055;-78
2023/02/20 10:35:57;;;;;;;5.13;3.08;;;8.80;99.90;;;;;;5095508;28;20028;-79
2023/02/20 10:38:28;;;;;;;4.18;2.70;;;8.90;99.90;;;;;;5093330;28;20058;-79
2023/02/20 10:41:02;;;;;;;4.88;2.85;;;9.10;99.90;;;;;;5091434;28;20032;-79
2023/02/20 10:43:32;;;;;;;5.35;2.72;;;9.30;99.90;;;;;;5106436;28;20040;-79
2023/02/20 10:46:07;;;;;;;4.05;2.38;;;9.30;99.90;;;;;;5094295;28;20033;-79
2023/02/20 10:48:34;;;;;;;4.28;2.10;;;9.40;99.90;;;;;;5096206;28;20024;-79
2023/02/20 10:51:22;;;;;;;4.70;1.70;;;9.50;99.90;;;;;;5076761;28;20047;-79
2023/02/20 10:54:01;;;;;;;5.22;2.10;;;9.50;99.90;;;;;;5090073;28;20027;-79
2023/02/20 10:56:37;;;;;;;6.93;3.75;;;9.50;99.90;;;;;;5093426;28;20437;-79
2023/02/20 10:59:27;;;;;;;2.75;1.98;;;9.50;99.90;;;;;;5088761;28;20218;-79
2023/02/20 11:01:56;;;;;;;2.88;1.55;;;9.50;99.90;;;;;;5077485;28;20046;-77
2023/02/20 11:04:38;;;;;;;4.85;2.00;;;9.70;99.90;;;;;;5087774;28;20028;-79
2023/02/20 11:07:10;;;;;;;4.15;1.90;;;9.80;99.90;;;;;;5085835;28;20086;-79
2023/02/20 11:09:36;;;;;;;4.28;2.30;;;9.70;99.90;;;;;;5087411;28;20487;-79
2023/02/20 11:12:02;;;;;;;3.50;1.95;;;9.70;99.90;;;;;;5076091;28;20100;-79
2023/02/20 11:14:40;;;;;;;5.30;1.95;;;9.70;99.90;;;;;;5084430;28;20497;-79
2023/02/20 11:17:14;;;;;;;3.05;1.58;;;9.70;99.90;;;;;;5089604;28;20476;-79
2023/02/20 11:19:55;;;;;;;4.30;1.98;;;9.70;99.90;;;;;;5083824;28;20028;-78
2023/02/20 11:22:50;;;;;;;2.25;1.48;;;9.70;99.90;;;;;;5084301;28;20096;-78
2023/02/20 11:25:26;;;;;;;4.15;2.13;;;9.60;99.90;;;;;;5089147;28;20072;-79
2023/02/20 11:27:59;;;;;;;2.10;1.60;;;9.60;99.90;;;;;;5084990;28;20111;-78
2023/02/20 11:30:35;;;;;;;2.38;1.45;;;9.70;99.90;;;;;;5090032;28;20035;-78
2023/02/20 11:33:02;;;;;;;;;;;9.70;99.90;;;;;;5085112;28;20023;-79
2023/02/20 11:35:33;;;;;;;2.83;1.70;;;9.70;99.90;;;;;;5090414;28;19917;-78
2023/02/20 11:38:15;;;;;;;4.53;1.48;;;9.70;99.90;;;;;;5084667;28;20411;-79
2023/02/20 11:40:44;;;;;;;7.15;1.80;;;9.50;99.90;;;;;;5087470;28;20052;-79
2023/02/20 11:43:12;;;;;;;4.57;1.48;;;9.50;99.90;;;;;;5091326;28;20020;-79
2023/02/20 11:45:39;;;;;;;3.97;1.35;;;9.40;99.90;;;;;;5084900;28;20396;-78
2023/02/20 11:48:10;;;;;;;2.75;1.55;;;9.30;99.90;;;;;;5090042;28;20028;-78
2023/02/20 11:50:47;;;;;;;3.50;1.50;;;9.20;99.90;;;;;;5084593;28;20025;-79
2023/02/20 11:53:32;;;;;;;4.55;1.67;;;9.10;99.90;;;;;;5082855;28;20040;-79
2023/02/20 11:56:17;;;;;;;4.78;1.83;;;9.10;99.90;;;;;;5089820;28;20046;-79
2023/02/20 11:58:45;;;;;;;4.35;1.73;;;9.10;99.90;;;;;;5082087;28;20449;-79
2023/02/20 12:01:35;;;;;;;4.28;1.85;;;9.20;99.90;;;;;;5084258;28;20024;-79
2023/02/20 12:04:01;;;;;;;2.95;1.75;;;9.30;99.90;;;;;;5084709;28;20032;-80
2023/02/20 12:06:33;;;;;;;3.42;1.95;;;9.40;99.90;;;;;;5083213;28;20095;-79
2023/02/20 12:09:01;;;;;;;4.22;2.00;;;9.50;99.90;;;;;;5089237;28;20078;-79
2023/02/20 12:11:28;;;;;;;2.80;1.67;;;9.50;99.90;;;;;;5083120;28;20058;-79
2023/02/20 12:13:57;;;;;;;2.53;1.60;;;9.50;99.90;;;;;;5086074;28;20029;-79
2023/02/20 12:16:49;;;;;;;3.72;1.80;;;9.50;99.90;;;;;;5087551;28;20052;-79
2023/02/20 12:19:17;;;;;;;3.70;1.65;;;9.50;99.90;;;;;;5085039;28;20028;-79
2023/02/20 12:22:02;;;;;;;3.58;2.17;;;9.50;99.90;;;;;;5090600;28;20047;-79
2023/02/20 12:24:39;;;;;;;7.63;2.80;;;9.50;99.90;;;;;;5087833;28;20028;-79
2023/02/20 12:27:34;;;;;;;4.90;2.20;;;9.40;99.90;;;;;;5083870;28;20024;-79
2023/02/20 12:30:26;;;;;;;3.92;1.98;;;9.40;99.90;;;;;;5047589;28;20035;-79
2023/02/20 12:33:04;;;;;;;4.75;2.10;;;9.40;99.90;;;;;;5072500;28;20119;-79
2023/02/20 12:35:40;;;;;;;2.90;2.15;;;9.40;99.90;;;;;;5085038;28;20535;-79
2023/02/20 12:38:06;;;;;;;3.20;1.98;;;9.30;99.90;;;;;;5084148;28;20058;-79
2023/02/20 12:40:46;;;;;;;3.97;2.33;;;9.40;99.90;;;;;;5069502;28;20030;-78
2023/02/20 12:43:31;;;;;;;5.30;2.13;;;9.50;99.90;;;;;;5081972;28;20032;-79
2023/02/20 12:46:19;;;;;;;7.80;3.10;;;9.70;99.90;;;;;;5081365;28;20480;-79
2023/02/20 12:49:16;;;;;;;3.53;2.20;;;9.80;99.90;;;;;;5081696;28;20095;-79
2023/02/20 12:51:52;;;;;;;7.22;2.90;;;9.90;99.90;;;;;;5087907;28;20042;-78
2023/02/20 12:54:43;;;;;;;4.82;2.33;;;10.00;99.90;;;;;;5084874;28;20020;-78
2023/02/20 12:57:24;;;;;;;5.78;2.40;;;10.00;99.90;;;;;;5084368;28;20042;-80
2023/02/20 12:59:58;;;;;;;3.63;2.17;;;10.00;99.90;;;;;;5078224;28;20389;-78
2023/02/20 13:02:48;;;;;;;2.80;2.28;;;10.00;99.90;;;;;;5076632;28;20039;-78
2023/02/20 13:05:19;;;;;;;3.20;2.22;;;10.10;99.90;;;;;;5079535;28;20039;-78
2023/02/20 13:07:55;;;;;;;8.43;2.97;;;10.10;99.90;;;;;;5080208;28;20484;-78
2023/02/20 13:10:28;;;;;;;6.35;3.05;;;10.10;99.90;;;;;;5067163;28;20028;-78
2023/02/20 13:12:54;;;;;;;4.45;2.17;;;10.20;99.90;;;;;;5089756;28;20038;-77
2023/02/20 13:15:35;;;;;;;3.72;2.50;;;10.30;99.90;;;;;;5081826;28;20123;-78
2023/02/20 13:18:37;;;;;;;4.53;2.13;;;10.30;99.90;;;;;;5079325;28;20021;-78
2023/02/20 13:21:15;;;;;;;5.03;2.20;;;10.40;99.90;;;;;;5082033;28;20043;-78
2023/02/20 13:23:41;;;;;;;2.00;1.75;;;10.40;99.90;;;;;;5090221;28;20492;-78
2023/02/20 13:26:25;;;;;;;6.13;2.60;;;10.40;99.90;;;;;;5091479;28;20039;-78
2023/02/20 13:28:52;;;;;;;3.05;2.28;;;10.40;99.90;;;;;;5090254;28;20036;-78
2023/02/20 13:31:21;;;;;;;4.70;2.65;;;10.40;99.90;;;;;;5075740;28;20476;-78